VKG1338 EFHK-LGKO
Flight info
| Callsign | VKG1338 |
|---|---|
| Flight time | 3h 29m |
| Altitude | 34000 |
| Route | KOIVU Y123 LARTI DCT LUTAL DCT BERIL/N0440F330 DCT BOKSU/N0439F340 DCT PODAN DCT KEKED/N0441F350 DCT NARKA DCT LOMOS DCT NIKTI DCT MES DCT KOPAR |
| Aircraft | A321/M-SDE3FGHIRWY/LB1 |
Departure
| Time | 2026-04-24 07:15 |
|---|---|
| Airport | Helsinki Vantaa Airport (EFHK) |
Arrival
| Time | 2026-04-24 10:45 |
|---|---|
| Airport | Kos International Airport "Ippokratis" (LGKO) |
| Time | Latitude | Longitude | Altitude | Speed | Heading |
|---|---|---|---|---|---|
| 2026-04-24 06:54 | 60.31825 | 24.97046 | 166 ft | 0 kts | 243° |
| 2026-04-24 07:03 | 60.31833 | 24.97078 | 166 ft | 4 kts | 243° |
| 2026-04-24 07:03 | 60.31841 | 24.97109 | 166 ft | 4 kts | 252° |
| 2026-04-24 07:03 | 60.31839 | 24.97172 | 166 ft | 4 kts | 312° |
| 2026-04-24 07:04 | 60.31829 | 24.97190 | 166 ft | 0 kts | 333° |
| 2026-04-24 07:06 | 60.31832 | 24.97187 | 166 ft | 2 kts | 333° |
| 2026-04-24 07:07 | 60.31842 | 24.97177 | 166 ft | 2 kts | 333° |
| 2026-04-24 07:07 | 60.31878 | 24.97139 | 166 ft | 10 kts | 333° |
| 2026-04-24 07:07 | 60.31995 | 24.97019 | 166 ft | 9 kts | 333° |
| 2026-04-24 07:08 | 60.32078 | 24.96930 | 166 ft | 16 kts | 330° |
| 2026-04-24 07:08 | 60.32171 | 24.96822 | 166 ft | 15 kts | 330° |
| 2026-04-24 07:08 | 60.32246 | 24.96700 | 167 ft | 12 kts | 275° |
| 2026-04-24 07:08 | 60.32203 | 24.96569 | 168 ft | 12 kts | 227° |
| 2026-04-24 07:09 | 60.32148 | 24.96449 | 168 ft | 11 kts | 228° |
| 2026-04-24 07:09 | 60.32102 | 24.96345 | 168 ft | 9 kts | 228° |
| 2026-04-24 07:09 | 60.32059 | 24.96248 | 168 ft | 9 kts | 228° |
| 2026-04-24 07:09 | 60.32011 | 24.96140 | 168 ft | 12 kts | 228° |
| 2026-04-24 07:10 | 60.31962 | 24.96031 | 169 ft | 9 kts | 228° |
| 2026-04-24 07:10 | 60.31925 | 24.95948 | 170 ft | 7 kts | 227° |
| 2026-04-24 07:10 | 60.31873 | 24.95834 | 169 ft | 14 kts | 227° |
| 2026-04-24 07:10 | 60.31807 | 24.95689 | 170 ft | 14 kts | 227° |
| 2026-04-24 07:11 | 60.31737 | 24.95539 | 171 ft | 15 kts | 226° |
| 2026-04-24 07:11 | 60.31663 | 24.95367 | 170 ft | 17 kts | 230° |
| 2026-04-24 07:11 | 60.31585 | 24.95200 | 170 ft | 16 kts | 227° |
| 2026-04-24 07:11 | 60.31511 | 24.95037 | 169 ft | 17 kts | 227° |
| 2026-04-24 07:12 | 60.31429 | 24.94856 | 166 ft | 18 kts | 227° |
| 2026-04-24 07:12 | 60.31339 | 24.94661 | 161 ft | 20 kts | 227° |
| 2026-04-24 07:12 | 60.31246 | 24.94454 | 159 ft | 20 kts | 227° |
| 2026-04-24 07:12 | 60.31157 | 24.94257 | 158 ft | 19 kts | 228° |
| 2026-04-24 07:13 | 60.31071 | 24.94074 | 158 ft | 17 kts | 227° |
| 2026-04-24 07:13 | 60.31030 | 24.93901 | 159 ft | 13 kts | 281° |
| 2026-04-24 07:13 | 60.31074 | 24.93758 | 159 ft | 12 kts | 320° |
| 2026-04-24 07:13 | 60.31145 | 24.93680 | 158 ft | 10 kts | 357° |
| 2026-04-24 07:14 | 60.31177 | 24.93743 | 158 ft | 0 kts | 50° |
| 2026-04-24 07:14 | 60.31189 | 24.93767 | 159 ft | 10 kts | 46° |
| 2026-04-24 07:14 | 60.31382 | 24.94179 | 161 ft | 76 kts | 47° |
| 2026-04-24 07:15 | 60.31876 | 24.95273 | 174 ft | 133 kts | 47° |
| 2026-04-24 07:15 | 60.32602 | 24.96850 | 319 ft | 164 kts | 46° |
| 2026-04-24 07:15 | 60.33336 | 24.98485 | 1093 ft | 155 kts | 44° |
| 2026-04-24 07:15 | 60.34047 | 25.00097 | 1849 ft | 153 kts | 43° |
| 2026-04-24 07:16 | 60.34791 | 25.01758 | 2398 ft | 165 kts | 43° |
| 2026-04-24 07:16 | 60.35581 | 25.03476 | 2809 ft | 171 kts | 43° |
| 2026-04-24 07:16 | 60.36413 | 25.05286 | 3102 ft | 181 kts | 43° |
| 2026-04-24 07:16 | 60.37308 | 25.07248 | 3240 ft | 199 kts | 43° |
| 2026-04-24 07:17 | 60.38300 | 25.09427 | 3353 ft | 223 kts | 43° |
| 2026-04-24 07:17 | 60.39182 | 25.12198 | 3701 ft | 250 kts | 71° |
| 2026-04-24 07:17 | 60.39119 | 25.15795 | 4386 ft | 269 kts | 104° |
| 2026-04-24 07:17 | 60.38384 | 25.19329 | 5159 ft | 275 kts | 110° |
| 2026-04-24 07:18 | 60.37557 | 25.22846 | 5920 ft | 280 kts | 111° |
| 2026-04-24 07:18 | 60.36693 | 25.26401 | 6651 ft | 284 kts | 111° |
| 2026-04-24 07:18 | 60.35815 | 25.30015 | 7349 ft | 289 kts | 112° |
| 2026-04-24 07:18 | 60.34653 | 25.33407 | 8019 ft | 301 kts | 130° |
| 2026-04-24 07:19 | 60.32973 | 25.36007 | 8658 ft | 310 kts | 151° |
| 2026-04-24 07:19 | 60.30918 | 25.37447 | 9321 ft | 316 kts | 172° |
| 2026-04-24 07:19 | 60.28716 | 25.37649 | 9930 ft | 320 kts | 182° |
| 2026-04-24 07:19 | 60.26432 | 25.37403 | 10127 ft | 339 kts | 192° |
| 2026-04-24 07:20 | 60.24087 | 25.36195 | 10260 ft | 356 kts | 205° |
| 2026-04-24 07:20 | 60.21843 | 25.33925 | 10521 ft | 365 kts | 218° |
| 2026-04-24 07:20 | 60.19862 | 25.30735 | 11043 ft | 366 kts | 228° |
| 2026-04-24 07:20 | 60.17978 | 25.27255 | 11624 ft | 370 kts | 229° |
| 2026-04-24 07:21 | 60.16066 | 25.23745 | 12223 ft | 374 kts | 229° |
| 2026-04-24 07:21 | 60.14155 | 25.20245 | 12798 ft | 379 kts | 229° |
| 2026-04-24 07:21 | 60.12197 | 25.16667 | 13389 ft | 383 kts | 229° |
| 2026-04-24 07:21 | 60.10211 | 25.13040 | 13874 ft | 388 kts | 229° |
| 2026-04-24 07:22 | 60.08204 | 25.09373 | 14384 ft | 393 kts | 230° |
| 2026-04-24 07:22 | 60.06176 | 25.05670 | 14891 ft | 397 kts | 230° |
| 2026-04-24 07:22 | 60.04123 | 25.01932 | 15366 ft | 401 kts | 230° |
| 2026-04-24 07:22 | 60.02056 | 24.98176 | 15879 ft | 405 kts | 230° |
| 2026-04-24 07:23 | 59.99961 | 24.94371 | 16369 ft | 409 kts | 230° |
| 2026-04-24 07:23 | 59.97843 | 24.90534 | 16850 ft | 413 kts | 230° |
| 2026-04-24 07:23 | 59.95702 | 24.86663 | 17333 ft | 417 kts | 230° |
| 2026-04-24 07:23 | 59.93540 | 24.82767 | 17798 ft | 421 kts | 230° |
| 2026-04-24 07:24 | 59.91354 | 24.78848 | 18232 ft | 425 kts | 230° |
| 2026-04-24 07:24 | 59.89144 | 24.74899 | 18645 ft | 428 kts | 230° |
| 2026-04-24 07:24 | 59.86906 | 24.70978 | 19045 ft | 433 kts | 226° |
| 2026-04-24 07:24 | 59.84361 | 24.67613 | 19453 ft | 446 kts | 215° |
| 2026-04-24 07:25 | 59.81670 | 24.65288 | 19824 ft | 457 kts | 204° |
| 2026-04-24 07:25 | 59.78566 | 24.63694 | 20218 ft | 464 kts | 198° |
| 2026-04-24 07:25 | 59.75409 | 24.62235 | 20612 ft | 466 kts | 198° |
| 2026-04-24 07:25 | 59.72245 | 24.60765 | 21020 ft | 469 kts | 198° |
| 2026-04-24 07:26 | 59.69057 | 24.59277 | 21418 ft | 472 kts | 198° |
| 2026-04-24 07:26 | 59.65854 | 24.57788 | 21801 ft | 475 kts | 198° |
| 2026-04-24 07:26 | 59.62611 | 24.56386 | 22189 ft | 478 kts | 197° |
| 2026-04-24 07:26 | 59.59336 | 24.55080 | 22534 ft | 481 kts | 196° |
| 2026-04-24 07:27 | 59.56046 | 24.53831 | 22961 ft | 483 kts | 195° |
| 2026-04-24 07:27 | 59.52737 | 24.52593 | 23340 ft | 485 kts | 195° |
| 2026-04-24 07:27 | 59.49412 | 24.51344 | 23656 ft | 487 kts | 195° |
| 2026-04-24 07:27 | 59.46077 | 24.50069 | 23982 ft | 489 kts | 196° |
| 2026-04-24 07:28 | 59.42734 | 24.48765 | 24299 ft | 491 kts | 196° |
| 2026-04-24 07:28 | 59.39373 | 24.47438 | 24609 ft | 493 kts | 196° |
| 2026-04-24 07:28 | 59.36007 | 24.46100 | 24921 ft | 495 kts | 196° |
| 2026-04-24 07:28 | 59.32627 | 24.44764 | 25228 ft | 497 kts | 196° |
| 2026-04-24 07:29 | 59.29234 | 24.43436 | 25540 ft | 498 kts | 196° |
| 2026-04-24 07:29 | 59.25828 | 24.42111 | 25849 ft | 500 kts | 196° |
| 2026-04-24 07:29 | 59.22408 | 24.40786 | 26151 ft | 502 kts | 196° |
| 2026-04-24 07:29 | 59.18978 | 24.39463 | 26446 ft | 504 kts | 196° |
| 2026-04-24 07:30 | 59.15531 | 24.38138 | 26738 ft | 506 kts | 196° |
| 2026-04-24 07:30 | 59.12071 | 24.36810 | 27085 ft | 508 kts | 196° |
| 2026-04-24 07:30 | 59.08586 | 24.35471 | 27244 ft | 513 kts | 196° |
| 2026-04-24 07:30 | 59.05082 | 24.34124 | 27477 ft | 515 kts | 196° |
| 2026-04-24 07:31 | 59.01557 | 24.32773 | 27736 ft | 516 kts | 195° |
| 2026-04-24 07:31 | 58.98027 | 24.31424 | 28026 ft | 518 kts | 195° |
| 2026-04-24 07:31 | 58.94491 | 24.30076 | 28304 ft | 519 kts | 195° |
| 2026-04-24 07:31 | 58.90940 | 24.28725 | 28571 ft | 521 kts | 195° |
| 2026-04-24 07:32 | 58.87375 | 24.27373 | 28825 ft | 522 kts | 195° |
| 2026-04-24 07:32 | 58.83805 | 24.26021 | 29080 ft | 524 kts | 195° |
| 2026-04-24 07:32 | 58.80222 | 24.24665 | 29337 ft | 526 kts | 195° |
| 2026-04-24 07:32 | 58.76625 | 24.23306 | 29581 ft | 528 kts | 195° |
| 2026-04-24 07:33 | 58.73025 | 24.21952 | 29902 ft | 526 kts | 195° |
| 2026-04-24 07:33 | 58.69437 | 24.20607 | 30277 ft | 524 kts | 195° |
| 2026-04-24 07:33 | 58.65868 | 24.19276 | 30619 ft | 522 kts | 195° |
| 2026-04-24 07:33 | 58.62306 | 24.17949 | 30951 ft | 521 kts | 195° |
| 2026-04-24 07:34 | 58.58804 | 24.16648 | 31275 ft | 519 kts | 195° |
| 2026-04-24 07:34 | 58.55215 | 24.15315 | 31605 ft | 518 kts | 195° |
| 2026-04-24 07:34 | 58.51728 | 24.14019 | 31936 ft | 517 kts | 195° |
| 2026-04-24 07:34 | 58.48203 | 24.12710 | 32265 ft | 515 kts | 195° |
| 2026-04-24 07:35 | 58.44691 | 24.11412 | 32584 ft | 513 kts | 195° |
| 2026-04-24 07:35 | 58.41188 | 24.10125 | 32958 ft | 511 kts | 195° |
| 2026-04-24 07:35 | 58.37705 | 24.08842 | 33302 ft | 509 kts | 195° |
| 2026-04-24 07:35 | 58.34231 | 24.07560 | 33626 ft | 508 kts | 196° |
| 2026-04-24 07:36 | 58.30758 | 24.06281 | 33793 ft | 507 kts | 196° |
| 2026-04-24 07:36 | 58.27308 | 24.05017 | 33825 ft | 503 kts | 196° |
| 2026-04-24 07:36 | 58.20453 | 24.02513 | 33828 ft | 501 kts | 196° |
| 2026-04-24 07:37 | 58.13626 | 24.00017 | 33834 ft | 499 kts | 196° |
| 2026-04-24 07:37 | 58.06818 | 23.97545 | 33842 ft | 498 kts | 196° |
| 2026-04-24 07:38 | 57.99993 | 23.95093 | 33834 ft | 501 kts | 195° |
| 2026-04-24 07:38 | 57.93147 | 23.92629 | 33830 ft | 502 kts | 196° |
| 2026-04-24 07:39 | 57.86275 | 23.90193 | 33818 ft | 502 kts | 195° |
| 2026-04-24 07:39 | 57.79411 | 23.87925 | 33831 ft | 502 kts | 194° |
| 2026-04-24 07:40 | 57.72747 | 23.85788 | 33849 ft | 502 kts | 194° |
| 2026-04-24 07:40 | 57.65927 | 23.83579 | 33856 ft | 502 kts | 195° |
| 2026-04-24 07:41 | 57.59051 | 23.81325 | 33836 ft | 501 kts | 195° |
| 2026-04-24 07:41 | 57.52186 | 23.79080 | 33852 ft | 500 kts | 195° |
| 2026-04-24 07:42 | 57.45327 | 23.76863 | 33870 ft | 500 kts | 194° |
| 2026-04-24 07:42 | 57.38482 | 23.74659 | 33867 ft | 499 kts | 194° |
| 2026-04-24 07:43 | 57.31639 | 23.72459 | 33840 ft | 499 kts | 194° |
| 2026-04-24 07:43 | 57.24807 | 23.70256 | 33853 ft | 498 kts | 194° |
| 2026-04-24 07:44 | 57.17991 | 23.68083 | 33859 ft | 497 kts | 194° |
| 2026-04-24 07:44 | 57.11176 | 23.65928 | 33863 ft | 497 kts | 194° |
| 2026-04-24 07:45 | 57.04370 | 23.63756 | 33839 ft | 496 kts | 194° |
| 2026-04-24 07:45 | 56.97568 | 23.61599 | 33855 ft | 496 kts | 194° |
| 2026-04-24 07:46 | 56.90764 | 23.59471 | 33862 ft | 496 kts | 194° |
| 2026-04-24 07:46 | 56.83966 | 23.57360 | 33865 ft | 496 kts | 194° |
| 2026-04-24 07:47 | 56.77170 | 23.55232 | 33830 ft | 495 kts | 194° |
| 2026-04-24 07:47 | 56.70381 | 23.53116 | 33847 ft | 495 kts | 194° |
| 2026-04-24 07:48 | 56.63594 | 23.51019 | 33855 ft | 495 kts | 194° |
| 2026-04-24 07:48 | 56.56806 | 23.48934 | 33865 ft | 494 kts | 194° |
| 2026-04-24 07:49 | 56.50026 | 23.46839 | 33865 ft | 494 kts | 194° |
| 2026-04-24 07:49 | 56.43247 | 23.44749 | 33875 ft | 494 kts | 194° |
| 2026-04-24 07:50 | 56.36463 | 23.42685 | 33873 ft | 494 kts | 193° |
| 2026-04-24 07:50 | 56.29627 | 23.41083 | 33878 ft | 496 kts | 189° |
| 2026-04-24 07:51 | 56.22741 | 23.39967 | 33859 ft | 497 kts | 189° |
| 2026-04-24 07:51 | 56.15911 | 23.38871 | 33878 ft | 496 kts | 189° |
| 2026-04-24 07:52 | 56.09049 | 23.37613 | 33907 ft | 496 kts | 190° |
| 2026-04-24 07:52 | 56.02185 | 23.36282 | 33881 ft | 497 kts | 190° |
| 2026-04-24 07:53 | 55.96418 | 23.35195 | 33846 ft | 498 kts | 190° |
| 2026-04-24 07:53 | 55.89525 | 23.33930 | 33863 ft | 498 kts | 190° |
| 2026-04-24 07:54 | 55.82630 | 23.32676 | 33876 ft | 498 kts | 189° |
| 2026-04-24 07:54 | 55.75734 | 23.31429 | 33881 ft | 498 kts | 190° |
| 2026-04-24 07:55 | 55.68836 | 23.30174 | 33860 ft | 498 kts | 189° |
| 2026-04-24 07:55 | 55.61944 | 23.28905 | 33870 ft | 499 kts | 190° |
| 2026-04-24 07:56 | 55.55035 | 23.27646 | 33877 ft | 499 kts | 189° |
| 2026-04-24 07:56 | 55.48124 | 23.26414 | 33892 ft | 499 kts | 189° |
| 2026-04-24 07:57 | 55.41211 | 23.25178 | 33865 ft | 499 kts | 189° |
| 2026-04-24 07:57 | 55.34296 | 23.23939 | 33891 ft | 500 kts | 189° |
| 2026-04-24 07:58 | 55.27422 | 23.22721 | 33923 ft | 500 kts | 189° |
| 2026-04-24 07:58 | 55.20498 | 23.21487 | 33914 ft | 501 kts | 189° |
| 2026-04-24 07:59 | 55.13564 | 23.20261 | 33892 ft | 501 kts | 189° |
| 2026-04-24 07:59 | 55.06623 | 23.19027 | 33896 ft | 501 kts | 189° |
| 2026-04-24 08:00 | 54.99677 | 23.17800 | 33909 ft | 502 kts | 189° |
| 2026-04-24 08:00 | 54.92734 | 23.16585 | 33926 ft | 502 kts | 189° |
| 2026-04-24 08:01 | 54.85780 | 23.15383 | 33904 ft | 502 kts | 189° |
| 2026-04-24 08:01 | 54.78826 | 23.14175 | 33909 ft | 502 kts | 189° |
| 2026-04-24 08:02 | 54.71871 | 23.12971 | 33926 ft | 503 kts | 189° |
| 2026-04-24 08:02 | 54.64914 | 23.11771 | 33931 ft | 502 kts | 189° |
| 2026-04-24 08:03 | 54.57957 | 23.10568 | 33911 ft | 502 kts | 189° |
| 2026-04-24 08:03 | 54.50999 | 23.09375 | 33927 ft | 502 kts | 189° |
| 2026-04-24 08:04 | 54.44044 | 23.08189 | 33967 ft | 502 kts | 189° |
| 2026-04-24 08:04 | 54.37082 | 23.07000 | 33958 ft | 503 kts | 189° |
| 2026-04-24 08:05 | 54.30131 | 23.05675 | 33924 ft | 501 kts | 194° |
| 2026-04-24 08:05 | 54.23331 | 23.03190 | 33933 ft | 500 kts | 196° |
| 2026-04-24 08:06 | 54.16526 | 23.00679 | 33943 ft | 501 kts | 196° |
| 2026-04-24 08:06 | 54.09709 | 22.98176 | 33948 ft | 501 kts | 196° |
| 2026-04-24 08:07 | 54.02890 | 22.95673 | 33933 ft | 502 kts | 196° |
| 2026-04-24 08:07 | 53.96061 | 22.93180 | 33937 ft | 502 kts | 196° |
| 2026-04-24 08:08 | 53.89220 | 22.90690 | 33942 ft | 503 kts | 196° |
| 2026-04-24 08:09 | 53.78993 | 22.86992 | 33947 ft | 503 kts | 195° |
| 2026-04-24 08:09 | 53.72145 | 22.84524 | 33951 ft | 503 kts | 196° |
| 2026-04-24 08:10 | 53.65247 | 22.82043 | 33956 ft | 503 kts | 195° |
| 2026-04-24 08:10 | 53.58444 | 22.79598 | 33943 ft | 503 kts | 195° |
| 2026-04-24 08:11 | 53.51591 | 22.77163 | 33949 ft | 503 kts | 195° |
| 2026-04-24 08:11 | 53.44736 | 22.74742 | 34008 ft | 503 kts | 195° |
| 2026-04-24 08:12 | 53.37881 | 22.72306 | 33978 ft | 504 kts | 195° |
| 2026-04-24 08:12 | 53.31017 | 22.69867 | 33941 ft | 504 kts | 195° |
| 2026-04-24 08:13 | 53.24150 | 22.67445 | 33953 ft | 505 kts | 195° |
| 2026-04-24 08:13 | 53.17276 | 22.65040 | 33958 ft | 505 kts | 195° |
| 2026-04-24 08:14 | 53.10402 | 22.62631 | 33964 ft | 505 kts | 195° |
| 2026-04-24 08:14 | 53.03530 | 22.60213 | 33946 ft | 505 kts | 195° |
| 2026-04-24 08:15 | 52.96654 | 22.57828 | 33954 ft | 505 kts | 195° |
| 2026-04-24 08:15 | 52.89769 | 22.55449 | 33961 ft | 505 kts | 195° |
| 2026-04-24 08:16 | 52.82883 | 22.53086 | 33956 ft | 505 kts | 194° |
| 2026-04-24 08:16 | 52.75994 | 22.50728 | 33964 ft | 506 kts | 195° |
| 2026-04-24 08:17 | 52.69107 | 22.48357 | 33972 ft | 506 kts | 195° |
| 2026-04-24 08:17 | 52.62266 | 22.46013 | 33976 ft | 506 kts | 195° |
| 2026-04-24 08:18 | 52.55375 | 22.43664 | 33961 ft | 505 kts | 194° |
| 2026-04-24 08:18 | 52.48489 | 22.41312 | 33981 ft | 505 kts | 194° |
| 2026-04-24 08:19 | 52.41609 | 22.38984 | 33988 ft | 505 kts | 194° |
| 2026-04-24 08:19 | 52.34727 | 22.36661 | 33984 ft | 505 kts | 194° |
| 2026-04-24 08:20 | 52.27844 | 22.34335 | 33981 ft | 505 kts | 194° |
| 2026-04-24 08:20 | 52.20959 | 22.32032 | 33981 ft | 505 kts | 194° |
| 2026-04-24 08:21 | 52.14070 | 22.29740 | 33985 ft | 505 kts | 194° |
| 2026-04-24 08:21 | 52.07178 | 22.27436 | 33976 ft | 505 kts | 194° |
| 2026-04-24 08:22 | 52.00291 | 22.25135 | 33986 ft | 505 kts | 194° |
| 2026-04-24 08:22 | 51.93402 | 22.22847 | 33986 ft | 505 kts | 194° |
| 2026-04-24 08:23 | 51.86510 | 22.20575 | 33978 ft | 505 kts | 194° |
| 2026-04-24 08:23 | 51.79619 | 22.18315 | 33993 ft | 505 kts | 194° |
| 2026-04-24 08:24 | 51.72729 | 22.16053 | 34003 ft | 505 kts | 194° |
| 2026-04-24 08:24 | 51.65835 | 22.13796 | 34007 ft | 505 kts | 194° |
| 2026-04-24 08:25 | 51.58936 | 22.11542 | 33989 ft | 506 kts | 193° |
| 2026-04-24 08:25 | 51.52062 | 22.09311 | 33986 ft | 509 kts | 193° |
| 2026-04-24 08:26 | 51.45058 | 22.07038 | 33981 ft | 512 kts | 193° |
| 2026-04-24 08:26 | 51.38106 | 22.04789 | 33992 ft | 514 kts | 193° |
| 2026-04-24 08:27 | 51.31075 | 22.02526 | 34017 ft | 516 kts | 193° |
| 2026-04-24 08:27 | 51.24023 | 22.00261 | 34011 ft | 517 kts | 193° |
| 2026-04-24 08:28 | 51.16962 | 21.98004 | 34012 ft | 518 kts | 193° |
| 2026-04-24 08:28 | 51.09893 | 21.95746 | 34008 ft | 518 kts | 193° |
| 2026-04-24 08:29 | 51.02818 | 21.93501 | 34025 ft | 518 kts | 193° |
| 2026-04-24 08:29 | 50.95747 | 21.91249 | 34027 ft | 518 kts | 193° |
| 2026-04-24 08:30 | 50.88679 | 21.89002 | 34012 ft | 518 kts | 193° |
| 2026-04-24 08:30 | 50.81597 | 21.86783 | 34019 ft | 518 kts | 193° |
| 2026-04-24 08:31 | 50.74525 | 21.84563 | 34033 ft | 518 kts | 193° |
| 2026-04-24 08:31 | 50.67459 | 21.82337 | 34028 ft | 518 kts | 193° |
| 2026-04-24 08:32 | 50.60398 | 21.80122 | 34042 ft | 517 kts | 193° |
| 2026-04-24 08:32 | 50.53380 | 21.77945 | 34044 ft | 517 kts | 192° |
| 2026-04-24 08:33 | 50.46324 | 21.75769 | 34054 ft | 517 kts | 192° |
| 2026-04-24 08:33 | 50.39272 | 21.73587 | 34041 ft | 516 kts | 192° |
| 2026-04-24 08:34 | 50.32239 | 21.71413 | 34074 ft | 515 kts | 192° |
| 2026-04-24 08:34 | 50.25201 | 21.69243 | 34062 ft | 515 kts | 192° |
| 2026-04-24 08:35 | 50.18173 | 21.67086 | 34045 ft | 514 kts | 192° |
| 2026-04-24 08:35 | 50.11162 | 21.64936 | 34054 ft | 513 kts | 192° |
| 2026-04-24 08:36 | 50.04156 | 21.62806 | 34058 ft | 513 kts | 192° |
| 2026-04-24 08:36 | 49.97154 | 21.60680 | 34053 ft | 512 kts | 192° |
| 2026-04-24 08:37 | 49.90166 | 21.58559 | 34061 ft | 512 kts | 192° |
| 2026-04-24 08:37 | 49.83178 | 21.56448 | 34062 ft | 511 kts | 192° |
| 2026-04-24 08:38 | 49.76198 | 21.54353 | 34049 ft | 511 kts | 192° |
| 2026-04-24 08:38 | 49.69223 | 21.52256 | 34055 ft | 511 kts | 192° |
| 2026-04-24 08:39 | 49.62248 | 21.50162 | 34054 ft | 510 kts | 192° |
| 2026-04-24 08:39 | 49.55276 | 21.48085 | 34051 ft | 510 kts | 192° |
| 2026-04-24 08:40 | 49.48350 | 21.46022 | 34047 ft | 510 kts | 192° |
| 2026-04-24 08:40 | 49.41374 | 21.43956 | 34039 ft | 511 kts | 191° |
| 2026-04-24 08:41 | 49.34343 | 21.42416 | 34055 ft | 511 kts | 186° |
| 2026-04-24 08:41 | 49.27253 | 21.41406 | 34027 ft | 512 kts | 185° |
| 2026-04-24 08:42 | 49.20164 | 21.40412 | 34033 ft | 512 kts | 186° |
| 2026-04-24 08:42 | 49.14278 | 21.39457 | 34037 ft | 512 kts | 186° |
| 2026-04-24 08:43 | 49.07199 | 21.38228 | 34034 ft | 512 kts | 186° |
| 2026-04-24 08:43 | 49.00121 | 21.37007 | 34035 ft | 512 kts | 186° |
| 2026-04-24 08:44 | 48.93040 | 21.35820 | 34029 ft | 512 kts | 186° |
| 2026-04-24 08:44 | 48.85957 | 21.34669 | 34009 ft | 512 kts | 186° |
| 2026-04-24 08:45 | 48.78879 | 21.33508 | 34028 ft | 511 kts | 186° |
| 2026-04-24 08:45 | 48.71805 | 21.32340 | 34036 ft | 511 kts | 186° |
| 2026-04-24 08:46 | 48.64739 | 21.31173 | 34037 ft | 511 kts | 186° |
| 2026-04-24 08:46 | 48.57676 | 21.30015 | 34046 ft | 510 kts | 185° |
| 2026-04-24 08:47 | 48.50623 | 21.30277 | 34037 ft | 506 kts | 168° |
| 2026-04-24 08:47 | 48.43859 | 21.33028 | 34030 ft | 503 kts | 160° |
| 2026-04-24 08:48 | 48.37206 | 21.36062 | 34031 ft | 503 kts | 160° |
| 2026-04-24 08:48 | 48.30510 | 21.39081 | 34039 ft | 502 kts | 160° |
| 2026-04-24 08:49 | 48.23816 | 21.42091 | 34045 ft | 502 kts | 160° |
| 2026-04-24 08:49 | 48.17130 | 21.45111 | 34049 ft | 501 kts | 160° |
| 2026-04-24 08:50 | 48.10458 | 21.48132 | 34045 ft | 501 kts | 160° |
| 2026-04-24 08:50 | 48.03789 | 21.51133 | 34053 ft | 500 kts | 160° |
| 2026-04-24 08:51 | 47.97131 | 21.54115 | 34051 ft | 500 kts | 160° |
| 2026-04-24 08:51 | 47.90471 | 21.57086 | 34061 ft | 499 kts | 160° |
| 2026-04-24 08:52 | 47.83824 | 21.60059 | 34088 ft | 499 kts | 160° |
| 2026-04-24 08:52 | 47.77175 | 21.63016 | 34065 ft | 499 kts | 160° |
| 2026-04-24 08:53 | 47.70520 | 21.65963 | 34060 ft | 499 kts | 160° |
| 2026-04-24 08:53 | 47.63860 | 21.68906 | 34054 ft | 499 kts | 160° |
| 2026-04-24 08:54 | 47.57211 | 21.71843 | 34063 ft | 498 kts | 160° |
| 2026-04-24 08:54 | 47.50610 | 21.74750 | 34064 ft | 498 kts | 160° |
| 2026-04-24 08:55 | 47.43960 | 21.77653 | 34073 ft | 499 kts | 160° |
| 2026-04-24 08:55 | 47.37302 | 21.80562 | 34060 ft | 499 kts | 160° |
| 2026-04-24 08:56 | 47.30653 | 21.83458 | 34059 ft | 498 kts | 160° |
| 2026-04-24 08:56 | 47.24003 | 21.86353 | 34056 ft | 498 kts | 160° |
| 2026-04-24 08:57 | 47.17356 | 21.89243 | 34051 ft | 498 kts | 160° |
| 2026-04-24 08:57 | 47.10710 | 21.92115 | 34082 ft | 498 kts | 160° |
| 2026-04-24 08:58 | 47.04057 | 21.94973 | 34072 ft | 498 kts | 160° |
| 2026-04-24 08:58 | 46.97409 | 21.97829 | 34065 ft | 498 kts | 160° |
| 2026-04-24 08:59 | 46.90761 | 22.00678 | 34060 ft | 498 kts | 159° |
| 2026-04-24 08:59 | 46.84114 | 22.03520 | 34061 ft | 497 kts | 159° |
| 2026-04-24 09:00 | 46.77474 | 22.06353 | 34055 ft | 497 kts | 159° |
| 2026-04-24 09:00 | 46.70831 | 22.09181 | 34056 ft | 497 kts | 160° |
| 2026-04-24 09:01 | 46.64183 | 22.12009 | 34040 ft | 498 kts | 160° |
| 2026-04-24 09:01 | 46.57526 | 22.14825 | 34035 ft | 498 kts | 160° |
| 2026-04-24 09:02 | 46.50864 | 22.17638 | 34033 ft | 499 kts | 160° |
| 2026-04-24 09:02 | 46.44248 | 22.20432 | 34029 ft | 499 kts | 159° |
| 2026-04-24 09:03 | 46.37580 | 22.23237 | 34045 ft | 499 kts | 160° |
| 2026-04-24 09:03 | 46.30909 | 22.26029 | 34032 ft | 499 kts | 160° |
| 2026-04-24 09:04 | 46.24224 | 22.28815 | 34022 ft | 500 kts | 160° |
| 2026-04-24 09:04 | 46.17543 | 22.31594 | 34023 ft | 500 kts | 159° |
| 2026-04-24 09:05 | 46.10866 | 22.34373 | 34024 ft | 499 kts | 160° |
| 2026-04-24 09:05 | 46.04186 | 22.37138 | 34052 ft | 499 kts | 159° |
| 2026-04-24 09:06 | 45.97507 | 22.39894 | 34025 ft | 500 kts | 159° |
| 2026-04-24 09:06 | 45.90835 | 22.42659 | 34034 ft | 499 kts | 159° |
| 2026-04-24 09:07 | 45.84167 | 22.45416 | 34033 ft | 498 kts | 159° |
| 2026-04-24 09:07 | 45.74167 | 22.49512 | 34024 ft | 498 kts | 159° |
| 2026-04-24 09:08 | 45.67507 | 22.52225 | 34046 ft | 497 kts | 159° |
| 2026-04-24 09:08 | 45.60860 | 22.54941 | 34037 ft | 497 kts | 159° |
| 2026-04-24 09:09 | 45.54210 | 22.57654 | 34016 ft | 497 kts | 159° |
| 2026-04-24 09:09 | 45.47560 | 22.60347 | 34016 ft | 497 kts | 159° |
| 2026-04-24 09:10 | 45.40910 | 22.63026 | 34005 ft | 496 kts | 159° |
| 2026-04-24 09:10 | 45.34272 | 22.65711 | 34007 ft | 497 kts | 159° |
| 2026-04-24 09:11 | 45.27661 | 22.68386 | 33988 ft | 497 kts | 159° |
| 2026-04-24 09:11 | 45.20998 | 22.71067 | 33982 ft | 498 kts | 159° |
| 2026-04-24 09:12 | 45.14332 | 22.73740 | 33973 ft | 498 kts | 159° |
| 2026-04-24 09:12 | 45.07655 | 22.76399 | 33968 ft | 498 kts | 159° |
| 2026-04-24 09:13 | 45.00988 | 22.79058 | 33981 ft | 498 kts | 159° |
| 2026-04-24 09:13 | 44.94323 | 22.81720 | 33987 ft | 497 kts | 159° |
| 2026-04-24 09:14 | 44.87669 | 22.84369 | 33984 ft | 497 kts | 159° |
| 2026-04-24 09:14 | 44.81015 | 22.87003 | 33981 ft | 496 kts | 159° |
| 2026-04-24 09:15 | 44.74380 | 22.89632 | 33994 ft | 495 kts | 159° |
| 2026-04-24 09:15 | 44.67755 | 22.92241 | 34003 ft | 494 kts | 159° |
| 2026-04-24 09:16 | 44.61142 | 22.94847 | 34001 ft | 493 kts | 159° |
| 2026-04-24 09:16 | 44.54541 | 22.97442 | 34008 ft | 492 kts | 159° |
| 2026-04-24 09:17 | 44.48000 | 23.00004 | 34004 ft | 491 kts | 159° |
| 2026-04-24 09:17 | 44.41422 | 23.02570 | 33996 ft | 491 kts | 159° |
| 2026-04-24 09:18 | 44.34846 | 23.05128 | 34014 ft | 490 kts | 159° |
| 2026-04-24 09:18 | 44.28268 | 23.07676 | 34012 ft | 490 kts | 159° |
| 2026-04-24 09:19 | 44.21695 | 23.10231 | 34007 ft | 490 kts | 159° |
| 2026-04-24 09:19 | 44.15123 | 23.12791 | 34003 ft | 490 kts | 159° |
| 2026-04-24 09:20 | 44.08557 | 23.15326 | 34015 ft | 489 kts | 159° |
| 2026-04-24 09:20 | 44.02001 | 23.17844 | 34029 ft | 489 kts | 159° |
| 2026-04-24 09:21 | 43.95439 | 23.20359 | 34020 ft | 489 kts | 159° |
| 2026-04-24 09:21 | 43.88888 | 23.22867 | 34023 ft | 488 kts | 159° |
| 2026-04-24 09:22 | 43.82341 | 23.25373 | 34018 ft | 488 kts | 159° |
| 2026-04-24 09:22 | 43.75862 | 23.27909 | 34017 ft | 487 kts | 159° |
| 2026-04-24 09:23 | 43.69360 | 23.30508 | 34036 ft | 486 kts | 159° |
| 2026-04-24 09:23 | 43.62859 | 23.33089 | 34036 ft | 486 kts | 159° |
| 2026-04-24 09:24 | 43.56357 | 23.35645 | 34029 ft | 486 kts | 159° |
| 2026-04-24 09:24 | 43.49856 | 23.38191 | 34032 ft | 485 kts | 159° |
| 2026-04-24 09:25 | 43.43363 | 23.40726 | 34027 ft | 484 kts | 159° |
| 2026-04-24 09:25 | 43.36885 | 23.43256 | 34049 ft | 484 kts | 159° |
| 2026-04-24 09:26 | 43.30401 | 23.45784 | 34033 ft | 484 kts | 159° |
| 2026-04-24 09:26 | 43.23920 | 23.48302 | 34027 ft | 484 kts | 159° |
| 2026-04-24 09:27 | 43.17437 | 23.50809 | 34025 ft | 484 kts | 159° |
| 2026-04-24 09:27 | 43.10954 | 23.53311 | 34025 ft | 484 kts | 159° |
| 2026-04-24 09:28 | 43.04472 | 23.55820 | 34041 ft | 484 kts | 160° |
| 2026-04-24 09:28 | 42.97990 | 23.58326 | 34036 ft | 484 kts | 160° |
| 2026-04-24 09:29 | 42.91549 | 23.60793 | 34031 ft | 484 kts | 160° |
| 2026-04-24 09:29 | 42.85024 | 23.63289 | 34034 ft | 483 kts | 160° |
| 2026-04-24 09:30 | 42.78553 | 23.65765 | 34052 ft | 483 kts | 161° |
| 2026-04-24 09:30 | 42.72089 | 23.68237 | 34048 ft | 482 kts | 161° |
| 2026-04-24 09:31 | 42.65633 | 23.70698 | 34046 ft | 482 kts | 161° |
| 2026-04-24 09:31 | 42.59185 | 23.73144 | 34042 ft | 481 kts | 161° |
| 2026-04-24 09:32 | 42.53829 | 23.75174 | 34042 ft | 481 kts | 161° |
| 2026-04-24 09:32 | 42.47382 | 23.77618 | 34047 ft | 481 kts | 161° |
| 2026-04-24 09:33 | 42.39893 | 23.80452 | 34037 ft | 481 kts | 161° |
| 2026-04-24 09:33 | 42.33436 | 23.82883 | 34026 ft | 482 kts | 161° |
| 2026-04-24 09:34 | 42.28028 | 23.84920 | 34023 ft | 482 kts | 161° |
| 2026-04-24 09:34 | 42.21566 | 23.87347 | 34023 ft | 482 kts | 161° |
| 2026-04-24 09:35 | 42.15105 | 23.89767 | 34016 ft | 482 kts | 161° |
| 2026-04-24 09:35 | 42.08642 | 23.92185 | 34014 ft | 482 kts | 161° |
| 2026-04-24 09:36 | 42.02178 | 23.94594 | 34013 ft | 482 kts | 162° |
| 2026-04-24 09:36 | 41.95716 | 23.96998 | 34013 ft | 482 kts | 162° |
| 2026-04-24 09:37 | 41.89254 | 23.99399 | 34008 ft | 482 kts | 162° |
| 2026-04-24 09:37 | 41.82790 | 24.01790 | 34002 ft | 482 kts | 162° |
| 2026-04-24 09:38 | 41.76377 | 24.04165 | 34013 ft | 481 kts | 162° |
| 2026-04-24 09:38 | 41.69925 | 24.06547 | 34014 ft | 481 kts | 162° |
| 2026-04-24 09:39 | 41.63474 | 24.08924 | 34021 ft | 480 kts | 162° |
| 2026-04-24 09:39 | 41.57030 | 24.11290 | 34019 ft | 480 kts | 163° |
| 2026-04-24 09:40 | 41.50788 | 24.14367 | 34012 ft | 478 kts | 155° |
| 2026-04-24 09:40 | 41.44675 | 24.17860 | 34013 ft | 478 kts | 155° |
| 2026-04-24 09:41 | 41.38558 | 24.21330 | 34008 ft | 477 kts | 155° |
| 2026-04-24 09:41 | 41.35505 | 24.23055 | 33825 ft | 477 kts | 155° |
| 2026-04-24 09:41 | 41.32451 | 24.24780 | 33703 ft | 478 kts | 155° |
| 2026-04-24 09:42 | 41.29390 | 24.26510 | 33570 ft | 478 kts | 155° |
| 2026-04-24 09:42 | 41.26330 | 24.28244 | 33438 ft | 478 kts | 155° |
| 2026-04-24 09:42 | 41.23269 | 24.29983 | 33302 ft | 479 kts | 155° |
| 2026-04-24 09:42 | 41.20206 | 24.31720 | 33161 ft | 479 kts | 155° |
| 2026-04-24 09:43 | 41.17138 | 24.33452 | 32965 ft | 478 kts | 155° |
| 2026-04-24 09:43 | 41.14077 | 24.35173 | 33029 ft | 479 kts | 155° |
| 2026-04-24 09:43 | 41.07962 | 24.38668 | 33025 ft | 478 kts | 155° |
| 2026-04-24 09:44 | 41.01871 | 24.42217 | 33025 ft | 478 kts | 155° |
| 2026-04-24 09:44 | 40.95781 | 24.45749 | 33030 ft | 478 kts | 155° |
| 2026-04-24 09:45 | 40.89689 | 24.49260 | 33031 ft | 477 kts | 155° |
| 2026-04-24 09:45 | 40.83602 | 24.52758 | 33035 ft | 477 kts | 155° |
| 2026-04-24 09:46 | 40.77512 | 24.56241 | 33041 ft | 477 kts | 155° |
| 2026-04-24 09:46 | 40.71420 | 24.59729 | 33055 ft | 477 kts | 155° |
| 2026-04-24 09:47 | 40.65334 | 24.63209 | 33055 ft | 476 kts | 155° |
| 2026-04-24 09:47 | 40.59255 | 24.66674 | 33058 ft | 476 kts | 155° |
| 2026-04-24 09:48 | 40.53179 | 24.70135 | 33060 ft | 476 kts | 155° |
| 2026-04-24 09:48 | 40.47105 | 24.73586 | 33065 ft | 475 kts | 155° |
| 2026-04-24 09:49 | 40.41034 | 24.77017 | 33067 ft | 475 kts | 155° |
| 2026-04-24 09:49 | 40.34976 | 24.80443 | 33070 ft | 474 kts | 155° |
| 2026-04-24 09:50 | 40.28922 | 24.83866 | 33066 ft | 474 kts | 155° |
| 2026-04-24 09:50 | 40.22872 | 24.87282 | 33074 ft | 473 kts | 155° |
| 2026-04-24 09:51 | 40.16863 | 24.90659 | 33061 ft | 473 kts | 155° |
| 2026-04-24 09:51 | 40.10772 | 24.94074 | 33065 ft | 473 kts | 155° |
| 2026-04-24 09:52 | 40.04769 | 24.97444 | 33049 ft | 473 kts | 155° |
| 2026-04-24 09:52 | 39.98721 | 25.00823 | 33051 ft | 473 kts | 156° |
| 2026-04-24 09:53 | 39.92674 | 25.04191 | 33044 ft | 472 kts | 156° |
| 2026-04-24 09:53 | 39.86632 | 25.07561 | 33043 ft | 472 kts | 156° |
| 2026-04-24 09:54 | 39.80593 | 25.10924 | 33039 ft | 472 kts | 156° |
| 2026-04-24 09:54 | 39.74558 | 25.14272 | 33063 ft | 471 kts | 156° |
| 2026-04-24 09:55 | 39.68535 | 25.17602 | 33069 ft | 470 kts | 156° |
| 2026-04-24 09:55 | 39.62528 | 25.20921 | 33073 ft | 469 kts | 156° |
| 2026-04-24 09:56 | 39.56524 | 25.24238 | 33065 ft | 469 kts | 156° |
| 2026-04-24 09:56 | 39.50533 | 25.27542 | 33078 ft | 468 kts | 156° |
| 2026-04-24 09:57 | 39.44544 | 25.30827 | 33073 ft | 467 kts | 156° |
| 2026-04-24 09:57 | 39.38563 | 25.34094 | 33069 ft | 467 kts | 156° |
| 2026-04-24 09:58 | 39.32589 | 25.37363 | 33060 ft | 466 kts | 156° |
| 2026-04-24 09:58 | 39.26619 | 25.40635 | 33068 ft | 466 kts | 156° |
| 2026-04-24 09:59 | 39.20657 | 25.43894 | 33059 ft | 466 kts | 156° |
| 2026-04-24 09:59 | 39.14685 | 25.47143 | 33063 ft | 466 kts | 156° |
| 2026-04-24 10:00 | 39.08715 | 25.50385 | 33057 ft | 466 kts | 156° |
| 2026-04-24 10:00 | 39.02743 | 25.53616 | 33059 ft | 465 kts | 156° |
| 2026-04-24 10:01 | 38.96780 | 25.56843 | 33064 ft | 465 kts | 156° |
| 2026-04-24 10:01 | 38.90821 | 25.60064 | 33058 ft | 465 kts | 156° |
| 2026-04-24 10:02 | 38.84864 | 25.63281 | 33059 ft | 465 kts | 156° |
| 2026-04-24 10:02 | 38.78910 | 25.66489 | 33069 ft | 464 kts | 159° |
| 2026-04-24 10:03 | 38.72966 | 25.69682 | 33063 ft | 463 kts | 159° |
| 2026-04-24 10:03 | 38.67030 | 25.72863 | 33060 ft | 462 kts | 158° |
| 2026-04-24 10:04 | 38.61103 | 25.76052 | 33055 ft | 462 kts | 158° |
| 2026-04-24 10:04 | 38.55177 | 25.79223 | 33040 ft | 461 kts | 160° |
| 2026-04-24 10:05 | 38.49297 | 25.82355 | 33036 ft | 461 kts | 160° |
| 2026-04-24 10:05 | 38.43368 | 25.85513 | 33027 ft | 461 kts | 160° |
| 2026-04-24 10:06 | 38.34488 | 25.90231 | 33018 ft | 461 kts | 161° |
| 2026-04-24 10:07 | 38.28568 | 25.93362 | 33026 ft | 461 kts | 161° |
| 2026-04-24 10:07 | 38.22817 | 25.97029 | 33008 ft | 464 kts | 155° |
| 2026-04-24 10:08 | 38.17210 | 26.01090 | 33017 ft | 464 kts | 155° |
| 2026-04-24 10:08 | 38.11605 | 26.05175 | 32996 ft | 464 kts | 156° |
| 2026-04-24 10:09 | 38.06120 | 26.09177 | 33015 ft | 445 kts | 157° |
| 2026-04-24 10:09 | 38.00787 | 26.13043 | 33019 ft | 440 kts | 158° |
| 2026-04-24 10:10 | 37.95458 | 26.16857 | 33018 ft | 443 kts | 158° |
| 2026-04-24 10:10 | 37.90012 | 26.20754 | 33016 ft | 453 kts | 157° |
| 2026-04-24 10:11 | 37.84523 | 26.24709 | 32992 ft | 454 kts | 158° |
| 2026-04-24 10:11 | 37.79038 | 26.28658 | 32279 ft | 453 kts | 159° |
| 2026-04-24 10:11 | 37.76288 | 26.30630 | 31208 ft | 454 kts | 159° |
| 2026-04-24 10:12 | 37.73552 | 26.32594 | 30376 ft | 449 kts | 159° |
| 2026-04-24 10:12 | 37.70858 | 26.34533 | 29452 ft | 442 kts | 159° |
| 2026-04-24 10:12 | 37.68207 | 26.36440 | 28461 ft | 435 kts | 159° |
| 2026-04-24 10:12 | 37.65595 | 26.38312 | 27510 ft | 429 kts | 159° |
| 2026-04-24 10:13 | 37.63018 | 26.40155 | 26583 ft | 422 kts | 159° |
| 2026-04-24 10:13 | 37.60481 | 26.41964 | 25697 ft | 416 kts | 159° |
| 2026-04-24 10:13 | 37.57984 | 26.43743 | 25062 ft | 405 kts | 159° |
| 2026-04-24 10:13 | 37.55579 | 26.45464 | 24625 ft | 390 kts | 159° |
| 2026-04-24 10:14 | 37.53264 | 26.47119 | 24206 ft | 379 kts | 159° |
| 2026-04-24 10:14 | 37.50978 | 26.48743 | 23767 ft | 375 kts | 159° |
| 2026-04-24 10:14 | 37.48739 | 26.50320 | 23304 ft | 372 kts | 159° |
| 2026-04-24 10:14 | 37.46492 | 26.51904 | 22858 ft | 368 kts | 159° |
| 2026-04-24 10:15 | 37.44273 | 26.53467 | 22429 ft | 364 kts | 159° |
| 2026-04-24 10:15 | 37.42076 | 26.55015 | 21997 ft | 358 kts | 159° |
| 2026-04-24 10:15 | 37.39918 | 26.56540 | 21457 ft | 360 kts | 159° |
| 2026-04-24 10:15 | 37.37703 | 26.58096 | 20886 ft | 368 kts | 158° |
| 2026-04-24 10:16 | 37.35467 | 26.59673 | 20326 ft | 369 kts | 157° |
| 2026-04-24 10:16 | 37.33232 | 26.61258 | 19769 ft | 368 kts | 158° |
| 2026-04-24 10:16 | 37.31013 | 26.62838 | 19228 ft | 365 kts | 157° |
| 2026-04-24 10:16 | 37.28809 | 26.64408 | 18721 ft | 364 kts | 157° |
| 2026-04-24 10:17 | 37.26617 | 26.65966 | 18171 ft | 360 kts | 157° |
| 2026-04-24 10:17 | 37.24439 | 26.67507 | 17582 ft | 358 kts | 156° |
| 2026-04-24 10:17 | 37.22276 | 26.69035 | 17001 ft | 355 kts | 156° |
| 2026-04-24 10:17 | 37.20133 | 26.70547 | 16431 ft | 352 kts | 156° |
| 2026-04-24 10:18 | 37.18008 | 26.72041 | 15869 ft | 348 kts | 155° |
| 2026-04-24 10:18 | 37.15903 | 26.73518 | 15319 ft | 345 kts | 155° |
| 2026-04-24 10:18 | 37.13814 | 26.74982 | 14773 ft | 342 kts | 155° |
| 2026-04-24 10:18 | 37.11747 | 26.76428 | 14243 ft | 339 kts | 154° |
| 2026-04-24 10:19 | 37.10389 | 26.77379 | 13899 ft | 337 kts | 154° |
| 2026-04-24 10:19 | 37.08351 | 26.78805 | 13324 ft | 334 kts | 154° |
| 2026-04-24 10:19 | 37.06336 | 26.80219 | 12737 ft | 331 kts | 154° |
| 2026-04-24 10:19 | 37.04333 | 26.81627 | 12160 ft | 328 kts | 153° |
| 2026-04-24 10:20 | 37.02352 | 26.83020 | 11673 ft | 325 kts | 153° |
| 2026-04-24 10:20 | 37.00377 | 26.84401 | 11350 ft | 324 kts | 153° |
| 2026-04-24 10:20 | 36.98415 | 26.85771 | 11011 ft | 322 kts | 153° |
| 2026-04-24 10:20 | 36.96464 | 26.87130 | 10656 ft | 321 kts | 153° |
| 2026-04-24 10:21 | 36.94520 | 26.88486 | 10315 ft | 319 kts | 153° |
| 2026-04-24 10:21 | 36.92587 | 26.89835 | 9942 ft | 317 kts | 153° |
| 2026-04-24 10:21 | 36.90693 | 26.91160 | 9482 ft | 306 kts | 152° |
| 2026-04-24 10:21 | 36.88874 | 26.92435 | 9038 ft | 294 kts | 152° |
| 2026-04-24 10:22 | 36.87105 | 26.93673 | 8592 ft | 290 kts | 152° |
| 2026-04-24 10:22 | 36.85354 | 26.94890 | 8156 ft | 286 kts | 153° |
| 2026-04-24 10:22 | 36.83645 | 26.96078 | 7731 ft | 277 kts | 152° |
| 2026-04-24 10:22 | 36.81988 | 26.97231 | 7466 ft | 269 kts | 152° |
| 2026-04-24 10:23 | 36.80371 | 26.98355 | 7216 ft | 263 kts | 152° |
| 2026-04-24 10:23 | 36.78787 | 26.99454 | 6983 ft | 258 kts | 152° |
| 2026-04-24 10:23 | 36.77256 | 27.00516 | 6792 ft | 247 kts | 152° |
| 2026-04-24 10:23 | 36.75768 | 27.01549 | 6564 ft | 241 kts | 152° |
| 2026-04-24 10:24 | 36.74330 | 27.02552 | 6341 ft | 233 kts | 152° |
| 2026-04-24 10:24 | 36.72938 | 27.03523 | 6106 ft | 226 kts | 152° |
| 2026-04-24 10:24 | 36.71579 | 27.04468 | 5883 ft | 223 kts | 152° |
| 2026-04-24 10:24 | 36.70229 | 27.05402 | 5643 ft | 222 kts | 152° |
| 2026-04-24 10:25 | 36.68881 | 27.06335 | 5417 ft | 222 kts | 152° |
| 2026-04-24 10:25 | 36.67534 | 27.07267 | 5194 ft | 221 kts | 152° |
| 2026-04-24 10:25 | 36.66195 | 27.08195 | 4959 ft | 220 kts | 152° |
| 2026-04-24 10:25 | 36.64865 | 27.09118 | 4785 ft | 218 kts | 151° |
| 2026-04-24 10:26 | 36.63541 | 27.10037 | 4657 ft | 218 kts | 152° |
| 2026-04-24 10:26 | 36.62213 | 27.10954 | 4447 ft | 219 kts | 152° |
| 2026-04-24 10:26 | 36.60928 | 27.11956 | 4151 ft | 219 kts | 137° |
| 2026-04-24 10:26 | 36.60109 | 27.13520 | 3835 ft | 219 kts | 106° |
| 2026-04-24 10:27 | 36.60033 | 27.15387 | 3562 ft | 216 kts | 74° |
| 2026-04-24 10:27 | 36.60536 | 27.17125 | 3419 ft | 212 kts | 66° |
| 2026-04-24 10:27 | 36.61068 | 27.18825 | 3280 ft | 207 kts | 66° |
| 2026-04-24 10:27 | 36.61847 | 27.20238 | 3131 ft | 192 kts | 38° |
| 2026-04-24 10:28 | 36.62989 | 27.20921 | 2979 ft | 176 kts | 9° |
| 2026-04-24 10:28 | 36.64154 | 27.20874 | 2870 ft | 162 kts | 345° |
| 2026-04-24 10:28 | 36.65145 | 27.20262 | 2744 ft | 157 kts | 328° |
| 2026-04-24 10:28 | 36.66060 | 27.19538 | 2613 ft | 154 kts | 328° |
| 2026-04-24 10:29 | 36.66957 | 27.18833 | 2545 ft | 149 kts | 328° |
| 2026-04-24 10:29 | 36.67817 | 27.18161 | 2508 ft | 143 kts | 328° |
| 2026-04-24 10:29 | 36.68652 | 27.17511 | 2497 ft | 143 kts | 328° |
| 2026-04-24 10:29 | 36.69501 | 27.16848 | 2500 ft | 143 kts | 329° |
| 2026-04-24 10:30 | 36.70337 | 27.16202 | 2287 ft | 142 kts | 329° |
| 2026-04-24 10:30 | 36.71169 | 27.15556 | 2096 ft | 139 kts | 329° |
| 2026-04-24 10:30 | 36.71985 | 27.14921 | 1901 ft | 138 kts | 329° |
| 2026-04-24 10:30 | 36.72807 | 27.14280 | 1720 ft | 137 kts | 329° |
| 2026-04-24 10:31 | 36.73605 | 27.13657 | 1536 ft | 137 kts | 329° |
| 2026-04-24 10:31 | 36.74414 | 27.13029 | 1350 ft | 137 kts | 329° |
| 2026-04-24 10:31 | 36.75224 | 27.12399 | 1172 ft | 138 kts | 329° |
| 2026-04-24 10:31 | 36.76045 | 27.11761 | 1031 ft | 140 kts | 330° |
| 2026-04-24 10:32 | 36.76880 | 27.11102 | 846 ft | 143 kts | 330° |
| 2026-04-24 10:32 | 36.77720 | 27.10449 | 603 ft | 141 kts | 331° |
| 2026-04-24 10:32 | 36.78538 | 27.09828 | 402 ft | 134 kts | 329° |
| 2026-04-24 10:32 | 36.79322 | 27.09202 | 619 ft | 145 kts | 329° |
| 2026-04-24 10:33 | 36.80229 | 27.08471 | 1173 ft | 159 kts | 328° |
| 2026-04-24 10:33 | 36.81099 | 27.07730 | 1802 ft | 149 kts | 327° |
| 2026-04-24 10:33 | 36.81980 | 27.07007 | 2143 ft | 154 kts | 329° |
| 2026-04-24 10:33 | 36.82906 | 27.06307 | 2445 ft | 163 kts | 332° |
| 2026-04-24 10:34 | 36.83942 | 27.05564 | 2786 ft | 176 kts | 332° |
| 2026-04-24 10:34 | 36.85003 | 27.04714 | 2967 ft | 193 kts | 317° |
| 2026-04-24 10:34 | 36.85553 | 27.03093 | 3016 ft | 221 kts | 275° |
| 2026-04-24 10:34 | 36.85050 | 27.01258 | 3007 ft | 233 kts | 233° |
| 2026-04-24 10:35 | 36.83809 | 26.99941 | 3012 ft | 236 kts | 210° |
| 2026-04-24 10:35 | 36.82244 | 26.99366 | 3126 ft | 236 kts | 182° |
| 2026-04-24 10:35 | 36.80650 | 26.99740 | 3377 ft | 235 kts | 156° |
| 2026-04-24 10:35 | 36.79174 | 27.00644 | 3630 ft | 237 kts | 153° |
| 2026-04-24 10:36 | 36.77693 | 27.01565 | 3883 ft | 238 kts | 153° |
| 2026-04-24 10:36 | 36.76255 | 27.02459 | 3982 ft | 224 kts | 153° |
| 2026-04-24 10:36 | 36.74875 | 27.03320 | 4007 ft | 220 kts | 154° |
| 2026-04-24 10:36 | 36.73506 | 27.04170 | 4008 ft | 220 kts | 154° |
| 2026-04-24 10:37 | 36.72135 | 27.05018 | 4011 ft | 220 kts | 154° |
| 2026-04-24 10:37 | 36.70776 | 27.05861 | 4008 ft | 218 kts | 154° |
| 2026-04-24 10:37 | 36.69419 | 27.06702 | 4008 ft | 217 kts | 154° |
| 2026-04-24 10:37 | 36.68063 | 27.07542 | 4007 ft | 218 kts | 154° |
| 2026-04-24 10:38 | 36.66719 | 27.08374 | 4010 ft | 219 kts | 154° |
| 2026-04-24 10:38 | 36.65354 | 27.09221 | 3994 ft | 220 kts | 154° |
| 2026-04-24 10:38 | 36.64009 | 27.10053 | 3883 ft | 211 kts | 154° |
| 2026-04-24 10:38 | 36.62711 | 27.10855 | 3783 ft | 207 kts | 153° |
| 2026-04-24 10:39 | 36.61440 | 27.11686 | 3677 ft | 207 kts | 144° |
| 2026-04-24 10:39 | 36.60481 | 27.12989 | 3570 ft | 204 kts | 116° |
| 2026-04-24 10:39 | 36.60080 | 27.14676 | 3599 ft | 204 kts | 91° |
| 2026-04-24 10:39 | 36.60297 | 27.16399 | 3601 ft | 202 kts | 66° |
| 2026-04-24 10:40 | 36.60818 | 27.18032 | 3498 ft | 203 kts | 68° |
| 2026-04-24 10:40 | 36.61443 | 27.19591 | 3342 ft | 200 kts | 49° |
| 2026-04-24 10:40 | 36.62526 | 27.20609 | 3192 ft | 196 kts | 20° |
| 2026-04-24 10:40 | 36.63848 | 27.20857 | 3040 ft | 193 kts | 352° |
| 2026-04-24 10:41 | 36.65101 | 27.20308 | 2881 ft | 193 kts | 328° |
| 2026-04-24 10:41 | 36.66236 | 27.19411 | 2764 ft | 193 kts | 328° |
| 2026-04-24 10:41 | 36.67366 | 27.18521 | 2660 ft | 192 kts | 328° |
| 2026-04-24 10:41 | 36.68457 | 27.17666 | 2583 ft | 178 kts | 328° |
| 2026-04-24 10:42 | 36.69447 | 27.16890 | 2549 ft | 159 kts | 329° |
| 2026-04-24 10:42 | 36.70367 | 27.16175 | 2304 ft | 152 kts | 329° |
| 2026-04-24 10:42 | 36.71247 | 27.15492 | 2082 ft | 147 kts | 329° |
| 2026-04-24 10:42 | 36.72113 | 27.14820 | 1895 ft | 146 kts | 329° |
| 2026-04-24 10:43 | 36.72966 | 27.14157 | 1723 ft | 144 kts | 329° |
| 2026-04-24 10:43 | 36.73811 | 27.13499 | 1549 ft | 143 kts | 329° |
| 2026-04-24 10:43 | 36.74650 | 27.12845 | 1392 ft | 142 kts | 329° |
| 2026-04-24 10:43 | 36.75491 | 27.12180 | 1231 ft | 143 kts | 328° |
| 2026-04-24 10:44 | 36.76340 | 27.11513 | 1087 ft | 145 kts | 330° |
| 2026-04-24 10:44 | 36.77196 | 27.10849 | 887 ft | 144 kts | 330° |
| 2026-04-24 10:44 | 36.78062 | 27.10191 | 599 ft | 146 kts | 330° |
| 2026-04-24 10:44 | 36.78921 | 27.09527 | 404 ft | 140 kts | 329° |
| 2026-04-24 10:45 | 36.79588 | 27.09012 | 416 ft | 73 kts | 328° |
| 2026-04-24 10:45 | 36.79841 | 27.08817 | 416 ft | 25 kts | 328° |
| 2026-04-24 10:45 | 36.79979 | 27.08712 | 414 ft | 24 kts | 329° |
| 2026-04-24 10:45 | 36.80112 | 27.08612 | 414 ft | 21 kts | 329° |
| 2026-04-24 10:46 | 36.80228 | 27.08519 | 413 ft | 20 kts | 327° |
| 2026-04-24 10:46 | 36.80335 | 27.08454 | 421 ft | 13 kts | 20° |
| 2026-04-24 10:46 | 36.80347 | 27.08551 | 416 ft | 12 kts | 103° |
| 2026-04-24 10:46 | 36.80328 | 27.08649 | 418 ft | 11 kts | 104° |
| 2026-04-24 10:47 | 36.80280 | 27.08715 | 415 ft | 10 kts | 149° |
| 2026-04-24 10:47 | 36.80223 | 27.08759 | 418 ft | 9 kts | 147° |
| 2026-04-24 10:47 | 36.80171 | 27.08800 | 414 ft | 10 kts | 148° |
| 2026-04-24 10:47 | 36.80116 | 27.08843 | 415 ft | 9 kts | 147° |
| 2026-04-24 10:48 | 36.80069 | 27.08881 | 416 ft | 8 kts | 148° |
| 2026-04-24 10:48 | 36.80026 | 27.08911 | 415 ft | 7 kts | 151° |
| 2026-04-24 10:48 | 36.80014 | 27.08947 | 412 ft | 3 kts | 76° |
| 2026-04-24 10:48 | 36.80026 | 27.08972 | 414 ft | 3 kts | 60° |
| 2026-04-24 10:49 | 36.80036 | 27.08992 | 410 ft | 2 kts | 57° |
| 2026-04-24 10:49 | 36.80041 | 27.09002 | 412 ft | 0 kts | 57° |
| 2026-04-24 10:49 | 36.80042 | 27.09004 | 413 ft | 0 kts | 57° |
| 2026-04-24 10:49 | 36.80043 | 27.09007 | 411 ft | 1 kts | 57° |